Time;durP1;ratioP1;P1;durP2;ratioP2;P2;SDS_P1;SDS_P2;PMS_P1;PMS_P2;Temp;Humidity;BMP_temperature;BMP_pressure;BME280_temperature;BME280_humidity;BME280_pressure;Samples;Min_cycle;Max_cycle;Signal;HPM_P1;HPM_P2
2021/01/15 00:00:15;;;;;;;;;;;;;;;-0.29;100.00;101322.56;5115184;28;19963;-74
2021/01/15 00:02:41;;;;;;;;;;;;;;;-0.30;100.00;101332.34;5114975;28;19931;-74
2021/01/15 00:05:07;;;;;;;;;;;;;;;-0.31;100.00;101330.56;5114664;28;19939;-74
2021/01/15 00:07:33;;;;;;;;;;;;;;;-0.30;100.00;101332.34;5114939;28;20294;-74
2021/01/15 00:09:59;;;;;;;;;;;;;;;-0.30;100.00;101331.47;5115204;28;19927;-75
2021/01/15 00:12:24;;;;;;;;;;;;;;;-0.30;100.00;101340.34;5113762;28;19928;-74
2021/01/15 00:14:51;;;;;;;;;;;;;;;-0.30;100.00;101334.13;5114835;28;19930;-74
2021/01/15 00:17:17;;;;;;;;;;;;;;;-0.32;100.00;101327.94;5113361;28;20018;-75
2021/01/15 00:19:43;;;;;;;;;;;;;;;-0.31;100.00;101335.03;5114434;28;19924;-74
2021/01/15 00:22:09;;;;;;;;;;;;;;;-0.34;100.00;101336.00;5114368;28;20396;-74
2021/01/15 00:24:34;;;;;;;;;;;;;;;-0.35;100.00;101331.56;5114697;28;19959;-75
2021/01/15 00:27:00;;;;;;;;;;;;;;;-0.39;100.00;101330.81;5114341;28;19928;-74
2021/01/15 00:29:27;;;;;;;;;;;;;;;-0.41;100.00;101334.41;5114599;28;20382;-75
2021/01/15 00:31:53;;;;;;;;;;;;;;;-0.47;100.00;101329.22;5114576;28;19932;-74
2021/01/15 00:34:19;;;;;;;;;;;;;;;-0.54;100.00;101337.38;5114477;28;19948;-74
2021/01/15 00:36:46;;;;;;;;;;;;;;;-0.56;100.00;101331.22;5114282;28;20463;-74
2021/01/15 00:39:14;;;;;;;;;;;;;;;-0.58;100.00;101334.84;5114379;28;20438;-74
2021/01/15 00:41:41;;;;;;;;;;;;;;;-0.61;100.00;101335.78;5114208;28;19974;-74
2021/01/15 00:44:07;;;;;;;;;;;;;;;-0.61;100.00;101333.13;5113087;28;19947;-74
2021/01/15 00:46:33;;;;;;;;;;;;;;;-0.61;100.00;101326.94;5114120;28;19924;-73
2021/01/15 00:49:03;;;;;;;;;;;;;;;-0.61;100.00;101338.47;5113087;28;20663;-75
2021/01/15 00:51:30;;;;;;;;;;;;;;;-0.59;100.00;101338.41;5113054;28;19966;-75
2021/01/15 00:53:56;;;;;;;;;;;;;;;-0.58;100.00;101340.16;5112882;28;19963;-74
2021/01/15 00:56:22;;;;;;;;;;;;;;;-0.59;100.00;101341.09;5114149;28;20016;-75
2021/01/15 00:58:48;;;;;;;;;;;;;;;-0.60;100.00;101345.56;5113932;28;19928;-74
2021/01/15 01:01:16;;;;;;;;;;;;;;;-0.62;100.00;101344.69;5112512;28;19923;-75
2021/01/15 01:03:48;;;;;;;;;;;;;;;-0.64;100.00;101349.22;5112697;28;19923;-74
2021/01/15 01:06:15;;;;;;;;;;;;;;;-0.63;100.00;101350.94;5113509;28;19923;-75
2021/01/15 01:08:41;;;;;;;;;;;;;;;-0.64;100.00;101354.53;5113920;28;19977;-74
2021/01/15 01:11:11;;;;;;;;;;;;;;;-0.64;100.00;101350.97;5113596;28;20343;-74
2021/01/15 01:13:37;;;;;;;;;;;;;;;-0.65;100.00;101357.25;5113650;28;19977;-75
2021/01/15 01:16:03;;;;;;;;;;;;;;;-0.65;100.00;101352.78;5112748;28;19927;-74
2021/01/15 01:18:28;;;;;;;;;;;;;;;-0.67;100.00;101357.25;5113682;28;19935;-74
2021/01/15 01:20:54;;;;;;;;;;;;;;;-0.68;100.00;101356.41;5112315;28;19923;-74
2021/01/15 01:23:21;;;;;;;;;;;;;;;-0.67;100.00;101362.59;5113549;28;19955;-75
2021/01/15 01:25:47;;;;;;;;;;;;;;;-0.67;100.00;101365.25;5113262;28;20022;-75
2021/01/15 01:28:12;;;;;;;;;;;;;;;-0.67;100.00;101365.25;5113349;28;19949;-74
2021/01/15 01:30:38;;;;;;;;;;;;;;;-0.66;100.00;101367.03;5112828;28;20313;-74
2021/01/15 01:33:04;;;;;;;;;;;;;;;-0.65;100.00;101370.59;5113242;28;19924;-74
2021/01/15 01:35:30;;;;;;;;;;;;;;;-0.65;100.00;101379.44;5112997;28;19924;-74
2021/01/15 01:37:56;;;;;;;;;;;;;;;-0.65;100.00;101379.44;5113197;28;20393;-74
2021/01/15 01:40:23;;;;;;;;;;;;;;;-0.65;100.00;101383.91;5113129;28;19973;-74
2021/01/15 01:42:48;;;;;;;;;;;;;;;-0.65;100.00;101379.44;5113091;28;19973;-74
2021/01/15 01:45:14;;;;;;;;;;;;;;;-0.64;100.00;101375.88;5112990;28;19923;-75
2021/01/15 01:47:40;;;;;;;;;;;;;;;-0.67;100.00;101373.25;5112928;28;19934;-75
2021/01/15 01:50:06;;;;;;;;;;;;;;;-0.67;100.00;101383.94;5112953;28;19959;-74
2021/01/15 01:52:33;;;;;;;;;;;;;;;-0.67;100.00;101373.25;5112924;28;19996;-74
2021/01/15 01:54:58;;;;;;;;;;;;;;;-0.65;100.00;101378.59;5112812;28;19987;-75
2021/01/15 01:57:25;;;;;;;;;;;;;;;-0.66;100.00;101374.16;5112628;28;19923;-74
2021/01/15 01:59:51;;;;;;;;;;;;;;;-0.66;100.00;101375.03;5112896;28;20350;-75
2021/01/15 02:02:17;;;;;;;;;;;;;;;-0.67;100.00;101373.25;5112660;28;19924;-74
2021/01/15 02:04:43;;;;;;;;;;;;;;;-0.67;100.00;101375.94;5112934;28;19974;-75
2021/01/15 02:07:08;;;;;;;;;;;;;;;-0.65;100.00;101378.59;5112543;28;20312;-75
2021/01/15 02:09:41;;;;;;;;;;;;;;;-0.67;100.00;101373.25;5112721;28;19923;-75
2021/01/15 02:12:10;;;;;;;;;;;;;;;-0.68;100.00;101374.19;5112318;28;19970;-75
2021/01/15 02:14:43;;;;;;;;;;;;;;;-0.69;100.00;101380.44;5112667;28;19963;-74
2021/01/15 02:17:13;;;;;;;;;;;;;;;-0.69;100.00;101383.09;5112435;28;19927;-74
2021/01/15 02:19:48;;;;;;;;;;;;;;;-0.71;100.00;101374.25;5112689;28;20022;-75
2021/01/15 02:22:28;;;;;;;;;;;;;;;-0.71;100.00;101375.16;5112501;28;19931;-75
2021/01/15 02:25:01;;;;;;;;;;;;;;;-0.72;100.00;101383.16;5112564;28;19951;-75
2021/01/15 02:27:49;;;;;;;;;;;;;;;-0.73;100.00;101378.75;5112318;28;20031;-75
2021/01/15 02:30:22;;;;;;;;;;;;;;;-0.73;100.00;101382.28;5112312;28;19924;-75
2021/01/15 02:32:54;;;;;;;;;;;;;;;-0.72;100.00;101380.50;5112559;28;20019;-75
2021/01/15 02:35:36;;;;;;;;;;;;;;;-0.70;100.00;101392.00;5112495;28;20019;-74
2021/01/15 02:38:10;;;;;;;;;;;;;;;-0.74;100.00;101388.53;5112349;28;19924;-75
2021/01/15 02:40:38;;;;;;;;;;;;;;;-0.74;100.00;101385.88;5112294;28;19978;-75
2021/01/15 02:43:05;;;;;;;;;;;;;;;-0.71;100.00;101395.59;5115808;28;19960;-75
2021/01/15 02:45:31;;;;;;;;;;;;;;;-0.69;100.00;101393.78;5116479;28;19970;-74
2021/01/15 02:48:01;;;;;;;;;;;;;;;-0.69;100.00;101397.31;5116258;28;20015;-74
2021/01/15 02:50:27;;;;;;;;;;;;;;;-0.67;100.00;101402.59;5116529;28;19955;-75
2021/01/15 02:52:53;;;;;;;;;;;;;;;-0.69;100.00;101399.97;5116422;28;19991;-73
2021/01/15 02:55:19;;;;;;;;;;;;;;;-0.68;100.00;101400.88;5116386;28;19931;-75
2021/01/15 02:57:45;;;;;;;;;;;;;;;-0.68;100.00;101398.19;5116177;28;19959;-75
2021/01/15 03:00:12;;;;;;;;;;;;;;;-0.66;100.00;101403.50;5116276;28;19931;-75
2021/01/15 03:02:42;;;;;;;;;;;;;;;-0.66;100.00;101408.81;5116326;28;19998;-74
2021/01/15 03:05:10;;;;;;;;;;;;;;;-0.65;100.00;101399.94;5115852;28;19986;-74
2021/01/15 03:07:38;;;;;;;;;;;;;;;-0.65;100.00;101405.25;5116063;28;20304;-75
2021/01/15 03:10:04;;;;;;;;;;;;;;;-0.68;100.00;101404.41;5116166;28;20019;-75
2021/01/15 03:12:30;;;;;;;;;;;;;;;-0.65;100.00;101405.25;5116052;28;20428;-74
2021/01/15 03:14:57;;;;;;;;;;;;;;;-0.65;100.00;101407.91;5116092;28;20495;-74
2021/01/15 03:17:26;;;;;;;;;;;;;;;-0.65;100.00;101406.13;5115754;28;20018;-74
2021/01/15 03:19:52;;;;;;;;;;;;;;;-0.63;100.00;101398.06;5115638;28;19969;-75
2021/01/15 03:22:19;;;;;;;;;;;;;;;-0.66;100.00;101393.69;5115679;28;20479;-74
2021/01/15 03:24:50;;;;;;;;;;;;;;;-0.69;100.00;101388.44;5115778;28;19966;-74
2021/01/15 03:27:16;;;;;;;;;;;;;;;-0.71;100.00;101384.91;5115365;28;20019;-75
2021/01/15 03:29:42;;;;;;;;;;;;;;;-0.71;100.00;101392.91;5114742;28;20381;-74
2021/01/15 03:32:08;;;;;;;;;;;;;;;-0.76;100.00;101395.72;5115747;28;19931;-74
2021/01/15 03:34:34;;;;;;;;;;;;;;;-0.72;100.00;101394.72;5114313;28;20434;-74
2021/01/15 03:36:59;;;;;;;;;;;;;;;-0.72;100.00;101397.38;5115423;28;19923;-75
2021/01/15 03:39:26;;;;;;;;;;;;;;;-0.72;100.00;101393.81;5115464;28;20477;-74
2021/01/15 03:41:52;;;;;;;;;;;;;;;-0.71;100.00;101393.81;5115520;28;19962;-74
2021/01/15 03:44:18;;;;;;;;;;;;;;;-0.75;100.00;101394.81;5115422;28;19964;-75
2021/01/15 03:46:43;;;;;;;;;;;;;;;-0.76;100.00;101402.81;5115130;28;20296;-75
2021/01/15 03:49:09;;;;;;;;;;;;;;;-0.81;100.00;101400.28;5115353;28;19927;-75
2021/01/15 03:51:36;;;;;;;;;;;;;;;-0.85;100.00;101396.78;5115371;28;19924;-74
2021/01/15 03:54:02;;;;;;;;;;;;;;;-0.87;100.00;101403.06;5114592;28;19959;-74
2021/01/15 03:56:29;;;;;;;;;;;;;;;-0.90;100.00;101401.34;5115058;28;19976;-75
2021/01/15 03:58:54;;;;;;;;;;;;;;;-0.92;100.00;101400.50;5115023;28;20301;-74
2021/01/15 04:01:20;;;;;;;;;;;;;;;-0.93;100.00;101401.41;5115142;28;19930;-74
2021/01/15 04:03:46;;;;;;;;;;;;;;;-0.95;100.00;101399.69;5115164;28;20274;-75
2021/01/15 04:06:12;;;;;;;;;;;;;;;-0.98;100.00;101405.97;5114763;28;19969;-74
2021/01/15 04:08:38;;;;;;;;;;;;;;;-1.00;100.00;101410.47;5115322;28;19931;-75
2021/01/15 04:11:03;;;;;;;;;;;;;;;-1.00;100.00;101402.47;5115187;28;20300;-75
2021/01/15 04:13:30;;;;;;;;;;;;;;;-1.02;100.00;101396.28;5115142;28;20384;-75
2021/01/15 04:15:56;;;;;;;;;;;;;;;-1.03;100.00;101402.53;5115175;28;19924;-74
2021/01/15 04:18:21;;;;;;;;;;;;;;;-1.05;100.00;101404.38;5114636;28;20541;-74
2021/01/15 04:20:47;;;;;;;;;;;;;;;-1.07;100.00;101403.50;5114905;28;19946;-74
2021/01/15 04:23:13;;;;;;;;;;;;;;;-1.08;100.00;101404.41;5114814;28;19924;-75
2021/01/15 04:25:39;;;;;;;;;;;;;;;-1.05;100.00;101407.91;5114347;28;19931;-74
2021/01/15 04:28:05;;;;;;;;;;;;;;;-1.02;100.00;101406.97;5114777;28;20319;-74
2021/01/15 04:30:31;;;;;;;;;;;;;;;-0.97;100.00;101412.19;5114659;28;20018;-74
2021/01/15 04:32:57;;;;;;;;;;;;;;;-0.96;100.00;101405.94;5114563;28;19969;-74
2021/01/15 04:35:23;;;;;;;;;;;;;;;-0.95;100.00;101403.25;5114270;28;19928;-75
2021/01/15 04:37:49;;;;;;;;;;;;;;;-0.90;100.00;101405.81;5113214;28;19928;-74
2021/01/15 04:40:15;;;;;;;;;;;;;;;-0.89;100.00;101408.44;5114284;28;19977;-74
2021/01/15 04:42:42;;;;;;;;;;;;;;;-0.88;100.00;101409.34;5114410;28;19996;-74
2021/01/15 04:45:09;;;;;;;;;;;;;;;-0.90;100.00;101401.34;5114311;28;19924;-74
2021/01/15 04:47:41;;;;;;;;;;;;;;;-0.88;100.00;101396.00;5114031;28;19934;-75
2021/01/15 04:50:08;;;;;;;;;;;;;;;-0.85;100.00;101404.78;5114366;28;20373;-74
2021/01/15 04:52:40;;;;;;;;;;;;;;;-0.91;100.00;101396.94;5113841;28;20328;-75
2021/01/15 04:55:09;;;;;;;;;;;;;;;-0.88;100.00;101394.19;5114019;28;19931;-74
2021/01/15 04:57:35;;;;;;;;;;;;;;;-0.87;100.00;101401.28;5113792;28;20014;-74
2021/01/15 05:00:04;;;;;;;;;;;;;;;-0.90;100.00;101405.81;5112940;28;19924;-75
2021/01/15 05:02:33;;;;;;;;;;;;;;;-0.94;100.00;101401.47;5113878;28;20471;-75
2021/01/15 05:05:01;;;;;;;;;;;;;;;-0.99;100.00;101412.22;5113141;28;19924;-75
2021/01/15 05:07:30;;;;;;;;;;;;;;;-1.03;100.00;101398.09;5113404;28;20421;-75
2021/01/15 05:09:57;;;;;;;;;;;;;;;-1.01;100.00;101398.91;5113521;28;20064;-75
2021/01/15 05:12:29;;;;;;;;;;;;;;;-1.01;100.00;101395.41;5113713;28;20030;-75
2021/01/15 05:14:54;;;;;;;;;;;;;;;-1.07;100.00;101395.53;5113832;28;19974;-75
2021/01/15 05:17:20;;;;;;;;;;;;;;;-1.11;100.00;101410.72;5113470;28;19924;-75
2021/01/15 05:19:46;;;;;;;;;;;;;;;-1.13;100.00;101406.34;5113782;28;19924;-75
2021/01/15 05:22:13;;;;;;;;;;;;;;;-1.13;100.00;101406.34;5113595;28;19924;-75
2021/01/15 05:24:39;;;;;;;;;;;;;;;-1.10;100.00;101403.59;5113505;28;19959;-75
2021/01/15 05:27:38;;;;;;;;;;;;;;;-1.09;100.00;101410.69;5112582;28;19924;-74
2021/01/15 05:30:08;;;;;;;;;;;;;;;-1.08;100.00;101407.09;5113344;28;19924;-74
2021/01/15 05:32:34;;;;;;;;;;;;;;;-1.05;100.00;101417.69;5113070;28;19932;-74
2021/01/15 05:34:59;;;;;;;;;;;;;;;-1.05;100.00;101413.22;5113277;28;20404;-74
2021/01/15 05:37:26;;;;;;;;;;;;;;;-1.03;100.00;101410.53;5113013;28;20336;-74
2021/01/15 05:39:52;;;;;;;;;;;;;;;-1.02;100.00;101417.63;5113099;28;20052;-75
2021/01/15 05:42:18;;;;;;;;;;;;;;;-1.01;100.00;101424.72;5112994;28;19923;-75
2021/01/15 05:44:43;;;;;;;;;;;;;;;-1.01;100.00;101424.72;5105296;28;19977;-75
2021/01/15 05:47:09;;;;;;;;;;;;;;;-1.04;100.00;101424.78;5092314;28;19928;-75
2021/01/15 05:49:35;;;;;;;;;;;;;;;-1.03;100.00;101421.19;5092551;28;20557;-75
2021/01/15 05:52:07;;;;;;;;;;;;;;;-1.01;100.00;101416.72;5112925;28;19924;-75
2021/01/15 05:54:34;;;;;;;;;;;;;;;-0.99;100.00;101422.00;5112698;28;19928;-75
2021/01/15 05:57:00;;;;;;;;;;;;;;;-1.04;100.00;101428.31;5111156;28;20023;-75
2021/01/15 05:59:27;;;;;;;;;;;;;;;-1.03;100.00;101427.41;5112748;28;20022;-75
2021/01/15 06:01:54;;;;;;;;;;;;;;;-1.02;100.00;101441.59;5096483;28;20040;-75
2021/01/15 06:04:20;;;;;;;;;;;;;;;-1.05;100.00;101439.88;5112382;28;19928;-75
2021/01/15 06:06:47;;;;;;;;;;;;;;;-1.08;100.00;101439.97;5095625;28;19928;-75
2021/01/15 06:09:18;;;;;;;;;;;;;;;-1.09;100.00;101442.66;5092383;28;19924;-75
2021/01/15 06:11:44;;;;;;;;;;;;;;;-1.06;100.00;101440.78;5106753;28;20018;-75
2021/01/15 06:14:23;;;;;;;;;;;;;;;-1.06;100.00;101447.91;5101907;28;20015;-75
2021/01/15 06:16:49;;;;;;;;;;;;;;;-1.07;100.00;101441.72;5092212;28;20358;-75
2021/01/15 06:19:15;;;;;;;;;;;;;;;-1.09;100.00;101443.53;5096480;28;19924;-75
2021/01/15 06:21:51;;;;;;;;;;;;;;;-1.12;100.00;101440.03;5107782;28;19969;-75
2021/01/15 06:24:20;;;;;;;;;;;;;;;-1.10;100.00;101444.44;5105223;28;20456;-75
2021/01/15 06:26:59;;;;;;;;;;;;;;;-1.08;100.00;101444.38;5112140;28;20006;-77
2021/01/15 06:29:27;;;;;;;;;;;;;;;-1.10;100.00;101446.22;5112120;28;19924;-75
2021/01/15 06:31:53;;;;;;;;;;;;;;;-1.10;100.00;101452.41;5099354;28;20465;-75
2021/01/15 06:34:19;;;;;;;;;;;;;;;-1.08;100.00;101458.59;5093269;28;20015;-75
2021/01/15 06:36:46;;;;;;;;;;;;;;;-1.05;100.00;101455.00;5108527;28;20466;-75
2021/01/15 06:39:12;;;;;;;;;;;;;;;-1.10;100.00;101455.09;5099929;28;20023;-76
2021/01/15 06:41:40;;;;;;;;;;;;;;;-1.12;100.00;101459.59;5092961;28;19928;-75
2021/01/15 06:44:08;;;;;;;;;;;;;;;-1.11;100.00;101457.78;5097655;28;19962;-75
2021/01/15 06:46:35;;;;;;;;;;;;;;;-1.14;100.00;101464.06;5104972;28;19924;-75
2021/01/15 06:49:03;;;;;;;;;;;;;;;-1.14;100.00;101461.41;5112087;28;20415;-76
2021/01/15 06:51:31;;;;;;;;;;;;;;;-1.11;100.00;101471.13;5111672;28;19931;-75
2021/01/15 06:53:58;;;;;;;;;;;;;;;-1.13;100.00;101471.16;5111606;28;19928;-76
2021/01/15 06:56:29;;;;;;;;;;;;;;;-1.11;100.00;101476.44;5111457;28;20015;-76
2021/01/15 06:58:58;;;;;;;;;;;;;;;-1.11;100.00;101476.44;5111663;28;20022;-75
2021/01/15 07:01:25;;;;;;;;;;;;;;;-1.14;100.00;101476.50;5111800;28;19928;-76
2021/01/15 07:04:02;;;;;;;;;;;;;;;-1.15;100.00;101475.63;5111699;28;19959;-76
2021/01/15 07:06:29;;;;;;;;;;;;;;;-1.09;100.00;101479.97;5111404;28;19928;-75
2021/01/15 07:08:55;;;;;;;;;;;;;;;-1.07;100.00;101478.13;5111376;28;19959;-75
2021/01/15 07:11:22;;;;;;;;;;;;;;;-1.10;100.00;101479.06;5111246;28;20023;-75
2021/01/15 07:13:50;;;;;;;;;;;;;;;-1.09;100.00;101485.31;5111536;28;20027;-75
2021/01/15 07:16:25;;;;;;;;;;;;;;;-1.09;100.00;101487.97;5111045;28;20022;-75
2021/01/15 07:18:58;;;;;;;;;;;;;;;-1.11;100.00;101492.44;5111521;28;20081;-75
2021/01/15 07:21:30;;;;;;;;;;;;;;;-1.09;100.00;101495.97;5111203;28;19927;-76
2021/01/15 07:24:02;;;;;;;;;;;;;;;-1.10;100.00;101497.72;5111407;28;20022;-76
2021/01/15 07:26:39;;;;;;;;;;;;;;;-1.11;100.00;101493.34;5111109;28;20068;-76
2021/01/15 07:29:05;;;;;;;;;;;;;;;-1.11;100.00;101492.44;5113055;28;19955;-75
2021/01/15 07:31:31;;;;;;;;;;;;;;;-1.14;100.00;101492.50;5115259;28;20018;-75
2021/01/15 07:33:59;;;;;;;;;;;;;;;-1.13;100.00;101487.13;5115097;28;19938;-76
2021/01/15 07:36:30;;;;;;;;;;;;;;;-1.20;100.00;101486.38;5112964;28;20072;-76
2021/01/15 07:39:03;;;;;;;;;;;;;;;-1.15;100.00;101496.94;5115092;28;20011;-76
2021/01/15 07:41:38;;;;;;;;;;;;;;;-1.15;100.00;101502.25;5115037;28;20041;-76
2021/01/15 07:44:33;;;;;;;;;;;;;;;-1.13;100.00;101494.28;5114992;28;19931;-76
2021/01/15 07:47:00;;;;;;;;;;;;;;;-1.10;100.00;101499.53;5114660;28;20505;-76
2021/01/15 07:49:42;;;;;;;;;;;;;;;-1.08;100.00;101503.91;5114773;28;20014;-76
2021/01/15 07:52:08;;;;;;;;;;;;;;;-1.06;100.00;101501.22;5115072;28;20044;-75
2021/01/15 07:54:57;;;;;;;;;;;;;;;-1.09;100.00;101495.97;5109739;28;20470;-75
2021/01/15 07:57:23;;;;;;;;;;;;;;;-1.08;100.00;101503.03;5103815;28;19924;-76
2021/01/15 07:59:49;;;;;;;;;;;;;;;-1.08;100.00;101501.25;5094494;28;20018;-76
2021/01/15 08:02:16;;;;;;;;;;;;;;;-1.14;100.00;101501.38;5099840;28;19977;-75
2021/01/15 08:04:42;;;;;;;;;;;;;;;-1.07;100.00;101508.34;5114878;28;20018;-76
2021/01/15 08:07:11;;;;;;;;;;;;;;;-1.03;100.00;101509.13;5097190;28;20019;-77
2021/01/15 08:09:39;;;;;;;;;;;;;;;-1.06;100.00;101509.22;5095527;28;20046;-75
2021/01/15 08:12:05;;;;;;;;;;;;;;;-1.05;100.00;101510.97;5093600;28;19932;-75
2021/01/15 08:14:32;;;;;;;;;;;;;;;-1.10;100.00;101507.53;5093565;28;19928;-75
2021/01/15 08:16:57;;;;;;;;;;;;;;;-1.17;100.00;101512.09;5098256;28;20014;-74
2021/01/15 08:19:24;;;;;;;;;;;;;;;-1.17;100.00;101508.56;5093838;28;19931;-75
2021/01/15 08:21:51;;;;;;;;;;;;;;;-1.18;100.00;101507.66;5094105;28;20628;-75
2021/01/15 08:24:18;;;;;;;;;;;;;;;-1.21;100.00;101502.41;5093749;28;20407;-75
2021/01/15 08:26:48;;;;;;;;;;;;;;;-1.19;100.00;101511.22;5101571;28;20345;-75
2021/01/15 08:29:13;;;;;;;;;;;;;;;-1.15;100.00;101512.06;5093952;28;19924;-75
2021/01/15 08:31:39;;;;;;;;;;;;;;;-1.19;100.00;101522.78;5093694;28;19975;-75
2021/01/15 08:34:06;;;;;;;;;;;;;;;-1.17;100.00;101522.75;5093439;28;20068;-75
2021/01/15 08:36:32;;;;;;;;;;;;;;;-1.15;100.00;101528.91;5092461;28;20385;-75
2021/01/15 08:38:58;;;;;;;;;;;;;;;-1.18;100.00;101523.66;5094475;28;19955;-75
2021/01/15 08:41:26;;;;;;;;;;;;;;;-1.15;100.00;101531.56;5106945;28;19931;-76
2021/01/15 08:43:52;;;;;;;;;;;;;;;-1.10;100.00;101528.84;5105275;28;19959;-76
2021/01/15 08:46:18;;;;;;;;;;;;;;;-1.07;100.00;101536.75;5100135;28;20270;-75
2021/01/15 08:48:44;;;;;;;;;;;;;;;-1.11;100.00;101545.72;5093261;28;20022;-76
2021/01/15 08:51:11;;;;;;;;;;;;;;;-1.14;100.00;101538.66;5093623;28;19928;-76
2021/01/15 08:53:43;;;;;;;;;;;;;;;-1.12;100.00;101544.88;5093314;28;20378;-75
2021/01/15 08:56:13;;;;;;;;;;;;;;;-1.13;100.00;101547.56;5093307;28;20026;-76
2021/01/15 08:58:48;;;;;;;;;;;;;;;-1.19;100.00;101554.75;5093486;28;20066;-75
2021/01/15 09:01:25;;;;;;;;;;;;;;;-1.15;100.00;101554.69;5093428;28;19925;-76
2021/01/15 09:03:53;;;;;;;;;;;;;;;-1.17;100.00;101552.06;5093221;28;19928;-75
2021/01/15 09:06:20;;;;;;;;;;;;;;;-1.19;100.00;101552.09;5092707;28;20367;-75
2021/01/15 09:08:46;;;;;;;;;;;;;;;-1.17;100.00;101556.53;5092924;28;19924;-75
2021/01/15 09:11:13;;;;;;;;;;;;;;;-1.18;100.00;101560.97;5092846;28;19928;-75
2021/01/15 09:13:39;;;;;;;;;;;;;;;-1.16;100.00;101564.50;5092871;28;20023;-75
2021/01/15 09:16:05;;;;;;;;;;;;;;;-1.10;100.00;101563.47;5092795;28;19963;-75
2021/01/15 09:18:31;;;;;;;;;;;;;;;-1.05;100.00;101558.94;5092532;28;20331;-75
2021/01/15 09:20:57;;;;;;;;;;;;;;;-1.03;100.00;101567.78;5092839;28;19925;-75
2021/01/15 09:23:23;;;;;;;;;;;;;;;-1.02;100.00;101566.88;5092208;28;19931;-75
2021/01/15 09:25:49;;;;;;;;;;;;;;;-0.98;100.00;101573.03;5092428;28;19977;-75
2021/01/15 09:28:15;;;;;;;;;;;;;;;-1.00;100.00;101573.06;5092616;28;19931;-75
2021/01/15 09:30:41;;;;;;;;;;;;;;;-1.14;100.00;101575.97;5092650;28;20305;-75
2021/01/15 09:33:07;;;;;;;;;;;;;;;-1.04;100.00;101574.03;5092443;28;19924;-75
2021/01/15 09:35:33;;;;;;;;;;;;;;;-0.97;100.00;101577.47;5093215;28;19924;-76
2021/01/15 09:37:58;;;;;;;;;;;;;;;-0.88;100.00;101585.28;5112671;28;20381;-75
2021/01/15 09:40:24;;;;;;;;;;;;;;;-0.78;100.00;101586.81;5109472;28;19988;-75
2021/01/15 09:42:50;;;;;;;;;;;;;;;-0.74;100.00;101577.00;5094366;28;19928;-75
2021/01/15 09:45:17;;;;;;;;;;;;;;;-0.70;100.00;101586.69;5092489;28;19947;-75
2021/01/15 09:47:45;;;;;;;;;;;;;;;-0.87;100.00;101577.25;5097317;28;19969;-75
2021/01/15 09:50:11;;;;;;;;;;;;;;;-0.62;100.00;101587.41;5101347;28;20249;-75
2021/01/15 09:52:37;;;;;;;;;;;;;;;-0.37;100.00;101586.88;5111168;28;20018;-75
2021/01/15 09:55:03;;;;;;;;;;;;;;;-0.24;100.00;101577.69;5099184;28;19986;-75
2021/01/15 09:57:29;;;;;;;;;;;;;;;-0.32;100.00;101576.09;5094872;28;20260;-75
2021/01/15 09:59:55;;;;;;;;;;;;;;;-0.36;100.00;101580.63;5104803;28;19959;-75
2021/01/15 10:02:22;;;;;;;;;;;;;;;-0.57;100.00;101584.66;5104913;28;19924;-74
2021/01/15 10:04:47;;;;;;;;;;;;;;;-0.57;100.00;101588.19;5100846;28;19931;-74
2021/01/15 10:07:13;;;;;;;;;;;;;;;-0.47;100.00;101577.31;5108144;28;19924;-75
2021/01/15 10:09:39;;;;;;;;;;;;;;;-0.36;100.00;101583.28;5091686;28;20416;-75
2021/01/15 10:12:05;;;;;;;;;;;;;;;-0.42;100.00;101576.28;5096612;28;19923;-75
2021/01/15 10:14:31;;;;;;;;;;;;;;;-0.30;100.00;101579.63;5111796;28;19927;-75
2021/01/15 10:16:57;;;;;;;;;;;;;;;-0.22;100.00;101581.19;5098654;28;19924;-75
2021/01/15 10:19:23;;;;;;;;;;;;;;;-0.19;100.00;101581.13;5112231;28;19927;-75
2021/01/15 10:21:52;;;;;;;;;;;;;;;-0.40;100.00;101568.25;5103329;28;20011;-75
2021/01/15 10:24:17;;;;;;;;;;;;;;;-0.40;100.00;101569.16;5098266;28;19956;-75
2021/01/15 10:26:43;;;;;;;;;;;;;;;-0.45;100.00;101567.50;5100968;28;19924;-74
2021/01/15 10:29:10;;;;;;;;;;;;;;;-0.50;100.00;101567.59;5111747;28;19924;-74
2021/01/15 10:31:41;;;;;;;;;;;;;;;-0.64;100.00;101567.91;5110695;28;19962;-75
2021/01/15 10:34:06;;;;;;;;;;;;;;;-0.72;100.00;101567.16;5110314;28;19924;-75
2021/01/15 10:36:33;;;;;;;;;;;;;;;-0.79;100.00;101570.88;5097206;28;19932;-75
2021/01/15 10:38:59;;;;;;;;;;;;;;;-0.76;100.00;101568.13;5099488;28;20021;-74
2021/01/15 10:41:29;;;;;;;;;;;;;;;-0.75;100.00;101572.56;5091055;28;19932;-75
2021/01/15 10:43:55;;;;;;;;;;;;;;;-0.78;100.00;101560.16;5096148;28;20274;-74
2021/01/15 10:46:27;;;;;;;;;;;;;;;-0.82;100.00;101568.28;5099093;28;19935;-74
2021/01/15 10:48:52;;;;;;;;;;;;;;;-0.88;100.00;101567.47;5101727;28;20348;-75
2021/01/15 10:51:18;;;;;;;;;;;;;;;-0.87;100.00;101571.91;5100736;28;19932;-75
2021/01/15 10:53:45;;;;;;;;;;;;;;;-1.08;100.00;101569.66;5098651;28;20076;-75
2021/01/15 10:56:11;;;;;;;;;;;;;;;-1.07;100.00;101574.97;5097582;28;19924;-75
2021/01/15 10:58:37;;;;;;;;;;;;;;;-1.11;100.00;101567.94;5098985;28;19924;-75
2021/01/15 11:01:03;;;;;;;;;;;;;;;-1.10;100.00;101574.16;5102117;28;20048;-75
2021/01/15 11:03:29;;;;;;;;;;;;;;;-1.09;100.00;101570.56;5100291;28;20407;-74
2021/01/15 11:05:55;;;;;;;;;;;;;;;-1.01;100.00;101571.31;5101281;28;19924;-74
2021/01/15 11:08:20;;;;;;;;;;;;;;;-0.98;100.00;101573.91;5095362;28;19924;-75
2021/01/15 11:10:47;;;;;;;;;;;;;;;-1.09;100.00;101562.59;5113254;28;19923;-74
2021/01/15 11:13:13;;;;;;;;;;;;;;;-1.09;100.00;101566.13;5114867;28;20014;-74
2021/01/15 11:15:39;;;;;;;;;;;;;;;-0.97;100.00;101559.66;5112023;27;19992;-75
2021/01/15 11:18:04;;;;;;;;;;;;;;;-1.01;100.00;101558.84;5116134;28;20018;-75
2021/01/15 11:20:30;;;;;;;;;;;;;;;-0.95;100.00;101559.63;5115024;28;20030;-75
2021/01/15 11:22:56;;;;;;;;;;;;;;;-0.96;100.00;101557.88;5096699;28;19924;-74
2021/01/15 11:25:22;;;;;;;;;;;;;;;-0.96;100.00;101561.44;5096310;28;20581;-75
2021/01/15 11:27:48;;;;;;;;;;;;;;;-0.91;100.00;101559.56;5095023;28;19959;-75
2021/01/15 11:30:15;;;;;;;;;;;;;;;-0.87;100.00;101561.25;5101213;28;19969;-75
2021/01/15 11:32:41;;;;;;;;;;;;;;;-0.93;100.00;101566.69;5114705;27;20369;-75
2021/01/15 11:35:07;;;;;;;;;;;;;;;-1.06;100.00;101560.72;5113913;28;20341;-73
2021/01/15 11:37:35;;;;;;;;;;;;;;;-1.08;100.00;101570.53;5111501;28;19928;-75
2021/01/15 11:40:01;;;;;;;;;;;;;;;-1.11;100.00;101564.38;5105919;27;20397;-75
2021/01/15 11:42:27;;;;;;;;;;;;;;;-1.03;100.00;101574.00;5113542;27;19967;-74
2021/01/15 11:44:53;;;;;;;;;;;;;;;-1.08;100.00;101566.97;5099296;27;19945;-75
2021/01/15 11:47:19;;;;;;;;;;;;;;;-1.05;100.00;101572.28;5102451;27;20363;-75
2021/01/15 11:49:45;;;;;;;;;;;;;;;-0.99;100.00;101576.59;5126738;27;19955;-75
2021/01/15 11:52:11;;;;;;;;;;;;;;;-1.09;100.00;101575.91;5101387;27;19924;-75
2021/01/15 11:54:37;;;;;;;;;;;;;;;-1.08;100.00;101578.53;5096127;28;20097;-76
2021/01/15 11:57:03;;;;;;;;;;;;;;;-1.06;100.00;101571.38;5112999;28;20521;-75
2021/01/15 11:59:28;;;;;;;;;;;;;;;-1.07;100.00;101576.75;5114735;28;19923;-74
2021/01/15 12:01:56;;;;;;;;;;;;;;;-1.12;100.00;101574.19;5113860;28;19927;-74
2021/01/15 12:04:22;;;;;;;;;;;;;;;-1.00;100.00;101578.41;5093736;28;19928;-75
2021/01/15 12:06:50;;;;;;;;;;;;;;;-1.03;100.00;101583.75;5100485;28;20029;-75
2021/01/15 12:09:16;;;;;;;;;;;;;;;-0.98;100.00;101579.22;5114560;28;20015;-75
2021/01/15 12:11:41;;;;;;;;;;;;;;;-0.98;100.00;101581.03;5105408;28;19924;-75
2021/01/15 12:14:07;;;;;;;;;;;;;;;-0.97;100.00;101581.00;5093433;28;19924;-74
2021/01/15 12:16:34;;;;;;;;;;;;;;;-1.03;100.00;101576.66;5098623;28;20585;-75
2021/01/15 12:19:01;;;;;;;;;;;;;;;-0.88;100.00;101585.28;5098223;28;19931;-75
2021/01/15 12:21:26;;;;;;;;;;;;;;;-1.08;100.00;101572.31;5102143;28;19985;-76
2021/01/15 12:23:52;;;;;;;;;;;;;;;-0.96;100.00;101581.84;5095054;28;19928;-74
2021/01/15 12:26:18;;;;;;;;;;;;;;;-1.03;100.00;101574.00;5094750;28;19924;-74
2021/01/15 12:28:44;;;;;;;;;;;;;;;-0.98;100.00;101579.22;5104794;28;19924;-74